createdAt,value
2019-05-02T00:02:48.034Z,111.31
2019-05-02T00:05:54.329Z,111.75
2019-05-02T00:08:59.542Z,111.53
2019-05-02T00:12:07.278Z,111.73
2019-05-02T00:15:13.357Z,111.69
2019-05-02T00:18:18.699Z,112.07
2019-05-02T00:21:24.067Z,112.40
2019-05-02T00:24:29.169Z,112.03
2019-05-02T00:27:37.703Z,112.14
2019-05-02T00:30:41.362Z,111.31
2019-05-02T00:33:46.669Z,111.69
2019-05-02T00:36:51.933Z,111.49
2019-05-02T00:39:57.301Z,111.74
2019-05-02T00:43:04.777Z,111.73
2019-05-02T00:46:09.889Z,111.44
2019-05-02T00:49:15.035Z,111.34
2019-05-02T00:52:20.239Z,111.36
2019-05-02T00:55:28.874Z,111.86
2019-05-02T00:58:33.108Z,111.53
2019-05-02T01:02:05.311Z,112.23
2019-05-02T01:05:10.102Z,112.41
2019-05-02T01:08:15.277Z,112.10
2019-05-02T01:11:20.458Z,113.04
2019-05-02T01:14:27.091Z,112.83
2019-05-02T01:17:32.484Z,112.78
2019-05-02T01:20:37.715Z,112.53
2019-05-02T01:23:42.829Z,111.73
2019-05-02T01:27:04.558Z,111.46
2019-05-02T01:30:42.366Z,111.52
2019-05-02T01:34:04.485Z,111.05
2019-05-02T01:37:20.650Z,110.89
2019-05-02T01:40:22.251Z,111.20
2019-05-02T01:43:30.157Z,110.44
2019-05-02T01:46:35.324Z,110.02
2019-05-02T01:49:40.484Z,109.91
2019-05-02T01:52:45.689Z,110.02
2019-05-02T01:55:51.964Z,110.29
2019-05-02T01:58:58.866Z,110.94
2019-05-02T02:02:04.147Z,110.27
2019-05-02T02:05:09.514Z,110.44
2019-05-02T02:08:14.744Z,110.56
2019-05-02T02:11:19.939Z,110.64
2019-05-02T02:14:25.058Z,110.16
2019-05-02T02:17:30.294Z,110.08
2019-05-02T02:21:00.258Z,109.54
2019-05-02T02:24:09.962Z,109.77
2019-05-02T02:27:15.130Z,109.82
2019-05-02T02:30:24.285Z,110.92
2019-05-02T02:33:27.216Z,110.63
2019-05-02T02:36:34.883Z,110.01
2019-05-02T02:39:39.265Z,109.75
2019-05-02T02:42:44.768Z,109.92
2019-05-02T02:45:59.998Z,110.03
2019-05-02T02:49:05.508Z,110.18
2019-05-02T02:52:10.718Z,109.15
2019-05-02T02:55:21.310Z,108.99
2019-05-02T02:58:22.769Z,108.67
2019-05-02T03:01:29.713Z,108.71
2019-05-02T03:04:34.737Z,108.03
2019-05-02T03:07:39.849Z,107.80
2019-05-02T03:10:46.560Z,108.12
2019-05-02T03:14:12.994Z,107.93
2019-05-02T03:17:20.299Z,108.75
2019-05-02T03:20:25.138Z,109.73
2019-05-02T03:23:30.493Z,110.39
2019-05-02T03:26:35.636Z,111.03
2019-05-02T03:29:44.442Z,111.32
2019-05-02T03:33:03.418Z,111.99
2019-05-02T03:35:55.063Z,111.73
2019-05-02T03:39:00.315Z,111.08
2019-05-02T03:42:06.196Z,111.81
2019-05-02T03:45:11.418Z,112.14
2019-05-02T03:48:18.176Z,112.41
2019-05-02T03:51:25.215Z,111.60
2019-05-02T03:54:30.920Z,112.09
2019-05-02T03:57:36.344Z,112.19
2019-05-02T04:00:41.668Z,111.76
2019-05-02T04:03:47.468Z,111.66
2019-05-02T04:06:54.958Z,111.64
2019-05-02T04:10:00.552Z,111.75
2019-05-02T04:13:05.762Z,111.92
2019-05-02T04:16:15.365Z,111.57
2019-05-02T04:19:18.603Z,111.49
2019-05-02T04:22:26.483Z,111.74
2019-05-02T04:25:34.004Z,112.27
2019-05-02T04:28:39.103Z,112.04
2019-05-02T04:31:44.388Z,111.08
2019-05-02T04:34:55.781Z,112.07
2019-05-02T04:37:59.196Z,112.27
2019-05-02T04:41:03.739Z,112.18
2019-05-02T04:44:09.295Z,112.21
2019-05-02T04:47:20.638Z,111.79
2019-05-02T04:50:29.246Z,111.43
2019-05-02T04:53:41.019Z,111.95
2019-05-02T04:56:52.327Z,111.73
2019-05-02T04:59:50.388Z,112.15
2019-05-02T05:02:54.820Z,111.10
2019-05-02T05:06:07.130Z,111.50
2019-05-02T05:09:10.431Z,111.55
2019-05-02T05:12:14.806Z,111.62
2019-05-02T05:15:35.830Z,111.66
2019-05-02T05:18:27.488Z,111.38
2019-05-02T05:21:33.803Z,110.73
2019-05-02T05:24:58.283Z,110.20
2019-05-02T05:28:06.057Z,110.74
2019-05-02T05:31:10.346Z,109.65
2019-05-02T05:34:17.346Z,109.89
2019-05-02T05:37:22.531Z,110.26
2019-05-02T05:40:31.882Z,109.53
2019-05-02T05:43:34.606Z,110.44
2019-05-02T05:46:42.472Z,110.59
2019-05-02T05:49:47.769Z,109.51
2019-05-02T05:52:53.068Z,108.19
2019-05-02T05:56:02.378Z,109.11
2019-05-02T05:59:07.618Z,108.80
2019-05-02T06:02:14.612Z,108.35
2019-05-02T06:05:19.128Z,108.76
2019-05-02T06:08:24.327Z,107.22
2019-05-02T06:11:29.581Z,105.85
2019-05-02T06:14:34.858Z,107.10
2019-05-02T06:17:40.125Z,107.40
2019-05-02T06:20:45.306Z,107.00
2019-05-02T06:23:50.637Z,106.40
2019-05-02T06:26:55.891Z,105.38
2019-05-02T06:30:01.021Z,105.13
2019-05-02T06:33:06.353Z,105.59
2019-05-02T06:36:11.500Z,104.98
2019-05-02T06:39:16.722Z,105.61
2019-05-02T06:42:21.852Z,104.81
2019-05-02T06:45:27.562Z,104.91
2019-05-02T06:48:32.682Z,103.43
2019-05-02T06:51:37.831Z,103.00
2019-05-02T06:54:42.985Z,102.47
2019-05-02T06:57:48.207Z,104.00
2019-05-02T07:00:58.249Z,104.13
2019-05-02T07:04:03.832Z,102.12
2019-05-02T07:07:07.646Z,103.78
2019-05-02T07:10:13.073Z,103.68
2019-05-02T07:13:18.333Z,102.17
2019-05-02T07:16:38.537Z,103.52
2019-05-02T07:19:46.344Z,101.01
2019-05-02T07:22:51.528Z,99.65
2019-05-02T07:25:56.659Z,102.25
2019-05-02T07:29:01.771Z,100.45
2019-05-02T07:32:07.138Z,99.66
2019-05-02T07:35:12.337Z,100.08
2019-05-02T07:38:20.139Z,100.31
2019-05-02T07:41:29.040Z,101.80
2019-05-02T07:44:32.554Z,102.47
2019-05-02T07:47:40.303Z,102.33
2019-05-02T07:50:46.488Z,99.47
2019-05-02T07:53:55.179Z,97.89
2019-05-02T07:57:02.377Z,100.04
2019-05-02T08:00:08.931Z,98.64
2019-05-02T08:03:15.606Z,97.53
2019-05-02T08:06:34.365Z,94.32
2019-05-02T08:09:27.790Z,95.03
2019-05-02T08:12:33.046Z,97.02
2019-05-02T08:15:38.293Z,93.58
2019-05-02T08:18:43.445Z,94.28
2019-05-02T08:21:48.603Z,94.67
2019-05-02T08:24:54.270Z,97.25
2019-05-02T08:28:18.435Z,92.96
2019-05-02T08:31:24.918Z,90.98
2019-05-02T08:34:32.008Z,92.93
2019-05-02T08:37:41.103Z,92.35
2019-05-02T08:40:47.756Z,92.45
2019-05-02T08:43:53.430Z,90.51
2019-05-02T08:47:30.593Z,89.49
2019-05-02T08:50:44.989Z,87.81
2019-05-02T08:54:06.246Z,86.69
2019-05-02T08:57:11.252Z,85.90
2019-05-02T09:00:16.741Z,85.21
2019-05-02T09:03:21.855Z,86.81
2019-05-02T09:06:29.655Z,84.00
2019-05-02T09:09:34.991Z,82.57
2019-05-02T09:12:42.045Z,80.20
2019-05-02T09:15:51.341Z,80.12
2019-05-02T09:18:54.406Z,85.02
2019-05-02T09:21:59.739Z,86.56
2019-05-02T09:25:07.238Z,81.07
2019-05-02T09:28:12.610Z,77.68
2019-05-02T09:31:17.939Z,77.42
2019-05-02T09:34:26.722Z,80.99
2019-05-02T09:37:32.115Z,79.48
2019-05-02T09:40:37.456Z,78.47
2019-05-02T09:43:42.911Z,79.58
2019-05-02T09:46:55.226Z,75.12
2019-05-02T09:50:30.012Z,80.70
2019-05-02T09:53:28.410Z,83.47
2019-05-02T09:56:33.805Z,80.84
2019-05-02T09:59:43.363Z,78.79
2019-05-02T10:02:45.886Z,76.96
2019-05-02T10:05:52.347Z,77.87
2019-05-02T10:08:57.664Z,76.95
2019-05-02T10:12:02.866Z,78.67
2019-05-02T10:15:12.893Z,78.38
2019-05-02T10:18:19.612Z,80.89
2019-05-02T10:21:25.282Z,82.58
2019-05-02T10:24:32.256Z,81.32
2019-05-02T10:27:38.541Z,82.50
2019-05-02T10:30:47.263Z,76.03
2019-05-02T10:33:52.952Z,82.35
2019-05-02T10:37:00.960Z,79.63
2019-05-02T10:40:07.921Z,77.71
2019-05-02T10:43:13.678Z,74.65
2019-05-02T10:46:32.567Z,74.39
2019-05-02T10:49:49.755Z,74.62
2019-05-02T10:52:54.961Z,78.40
2019-05-02T10:56:02.705Z,79.24
2019-05-02T10:59:07.891Z,76.42
2019-05-02T11:02:32.765Z,77.55
2019-05-02T11:05:39.615Z,75.58
2019-05-02T11:08:46.151Z,71.38
2019-05-02T11:11:52.012Z,73.47
2019-05-02T11:15:16.353Z,71.60
2019-05-02T11:18:39.445Z,72.73
2019-05-02T11:21:32.285Z,73.01
2019-05-02T11:24:37.815Z,73.36
2019-05-02T11:27:43.038Z,70.56
2019-05-02T11:30:48.212Z,71.47
2019-05-02T11:33:54.770Z,68.30
2019-05-02T11:37:01.849Z,68.70
2019-05-02T11:40:08.634Z,68.85
2019-05-02T11:43:14.878Z,68.86
2019-05-02T11:46:22.121Z,69.57
2019-05-02T11:49:28.115Z,71.11
2019-05-02T11:52:37.382Z,75.77
2019-05-02T11:55:41.978Z,71.68
2019-05-02T11:58:48.377Z,73.69
2019-05-02T12:02:09.457Z,70.76
2019-05-02T12:05:13.984Z,67.06
2019-05-02T12:08:19.212Z,66.54
2019-05-02T12:11:25.820Z,65.71
2019-05-02T12:14:32.841Z,64.03
2019-05-02T12:17:39.633Z,64.11
2019-05-02T12:20:46.428Z,65.55
2019-05-02T12:23:53.278Z,65.48
2019-05-02T12:26:58.533Z,70.31
2019-05-02T12:30:03.902Z,70.56
2019-05-02T12:33:09.342Z,69.39
2019-05-02T12:36:14.483Z,69.08
2019-05-02T12:39:19.663Z,66.48
2019-05-02T12:42:25.245Z,66.79
2019-05-02T12:45:38.805Z,66.43
2019-05-02T12:48:46.238Z,66.22
2019-05-02T12:51:52.423Z,66.01
2019-05-02T12:55:02.108Z,62.16
2019-05-02T12:58:08.303Z,64.04
2019-05-02T13:01:13.629Z,67.18
2019-05-02T13:04:19.005Z,64.48
2019-05-02T13:07:24.262Z,64.82
2019-05-02T13:10:38.309Z,65.43
2019-05-02T13:13:43.799Z,65.99
2019-05-02T13:16:53.636Z,68.87
2019-05-02T13:20:00.762Z,69.03
2019-05-02T13:23:36.982Z,69.03
2019-05-02T13:26:42.884Z,69.53
2019-05-02T13:29:49.498Z,70.87
2019-05-02T13:32:58.144Z,73.07
2019-05-02T13:36:03.378Z,73.91
2019-05-02T13:39:14.795Z,72.37
2019-05-02T13:42:21.887Z,75.49
2019-05-02T13:45:47.765Z,76.45
2019-05-02T13:48:55.189Z,77.93
2019-05-02T13:52:02.348Z,78.01
2019-05-02T13:55:08.910Z,78.81
2019-05-02T13:58:14.157Z,84.29
2019-05-02T14:01:19.751Z,86.69
2019-05-02T14:04:25.219Z,90.45
2019-05-02T14:07:32.689Z,90.94
2019-05-02T14:10:41.057Z,94.64
2019-05-02T14:13:49.352Z,97.50
2019-05-02T14:16:56.605Z,98.93
2019-05-02T14:20:10.797Z,99.46
2019-05-02T14:23:09.021Z,101.24
2019-05-02T14:26:27.425Z,102.81
2019-05-02T14:29:22.069Z,105.25
2019-05-02T14:32:27.292Z,106.07
2019-05-02T14:35:36.793Z,107.91
2019-05-02T14:38:42.194Z,110.91
2019-05-02T14:41:47.502Z,110.82
2019-05-02T14:45:11.603Z,110.21
2019-05-02T14:48:17.756Z,109.16
2019-05-02T14:51:06.750Z,108.54
2019-05-02T14:54:12.222Z,109.28
2019-05-02T14:57:25.527Z,108.32
2019-05-02T15:00:31.589Z,108.67
2019-05-02T15:03:36.623Z,110.93
2019-05-02T15:06:43.565Z,110.85
2019-05-02T15:09:52.535Z,111.52
2019-05-02T15:13:03.385Z,111.02
2019-05-02T15:16:17.493Z,113.34
2019-05-02T15:19:18.614Z,112.08
2019-05-02T15:22:27.575Z,113.22
2019-05-02T15:25:37.427Z,113.85
2019-05-02T15:28:46.795Z,114.37
2019-05-02T15:32:21.926Z,114.10
2019-05-02T15:35:38.178Z,114.10
2019-05-02T15:38:47.373Z,114.97
2019-05-02T15:41:53.657Z,114.60
2019-05-02T15:45:05.689Z,114.90
2019-05-02T15:48:21.526Z,115.39
2019-05-02T15:51:23.423Z,115.49
2019-05-02T15:54:29.504Z,116.37
2019-05-02T15:57:43.766Z,115.23
2019-05-02T16:01:05.079Z,115.13
2019-05-02T16:04:12.715Z,115.15
2019-05-02T16:07:18.135Z,115.78
2019-05-02T16:10:25.552Z,116.11
2019-05-02T16:13:32.414Z,116.33
2019-05-02T16:16:41.781Z,116.88
2019-05-02T16:19:49.493Z,116.95
2019-05-02T16:22:54.749Z,116.49
2019-05-02T16:26:05.334Z,116.80
2019-05-02T16:29:07.066Z,116.57
2019-05-02T16:32:35.150Z,116.67
2019-05-02T16:35:38.967Z,115.85
2019-05-02T16:38:44.338Z,115.50
2019-05-02T16:41:50.639Z,115.65
2019-05-02T16:44:57.728Z,116.19
2019-05-02T16:48:03.431Z,115.97
2019-05-02T16:51:28.070Z,116.51
2019-05-02T16:54:15.887Z,116.54
2019-05-02T16:57:22.136Z,116.89
2019-05-02T17:00:28.057Z,117.83
2019-05-02T17:03:33.243Z,117.38
2019-05-02T17:06:39.804Z,118.04
2019-05-02T17:10:19.226Z,118.51
2019-05-02T17:13:27.469Z,119.00
2019-05-02T17:16:32.406Z,118.73
2019-05-02T17:19:37.718Z,118.97
2019-05-02T17:22:43.977Z,119.00
2019-05-02T17:25:49.876Z,119.00
2019-05-02T17:28:56.727Z,119.00
2019-05-02T17:32:02.256Z,119.00
2019-05-02T17:35:10.185Z,119.00
2019-05-02T17:38:19.091Z,119.00
2019-05-02T17:41:22.703Z,119.00
2019-05-02T17:44:27.885Z,119.00
2019-05-02T17:47:36.068Z,119.00
2019-05-02T17:51:01.937Z,118.67
2019-05-02T17:54:06.756Z,118.60
2019-05-02T17:57:14.077Z,118.76
2019-05-02T18:00:23.280Z,118.08
2019-05-02T18:03:31.008Z,117.76
2019-05-02T18:06:38.011Z,117.10
2019-05-02T18:09:45.242Z,117.84
2019-05-02T18:12:58.284Z,118.81
2019-05-02T18:16:07.845Z,119.00
2019-05-02T18:19:11.342Z,119.00
2019-05-02T18:22:24.133Z,119.00
2019-05-02T18:25:28.627Z,119.00
2019-05-02T18:28:45.824Z,119.00
2019-05-02T18:31:47.258Z,119.00
2019-05-02T18:34:51.997Z,119.00
2019-05-02T18:37:57.633Z,119.00
2019-05-02T18:41:06.205Z,119.00
2019-05-02T18:44:17.058Z,119.00
2019-05-02T18:47:33.346Z,119.00
2019-05-02T18:50:42.574Z,119.00
2019-05-02T18:53:47.344Z,119.00
2019-05-02T18:56:55.369Z,119.00
2019-05-02T19:00:04.207Z,119.00
2019-05-02T19:03:16.953Z,119.00
2019-05-02T19:06:22.027Z,119.00
2019-05-02T19:09:30.463Z,119.00
2019-05-02T19:12:37.609Z,119.00
2019-05-02T19:15:47.262Z,119.00
2019-05-02T19:18:54.293Z,119.00
2019-05-02T19:21:58.815Z,119.00
2019-05-02T19:25:05.196Z,119.00
2019-05-02T19:28:17.503Z,119.00
2019-05-02T19:31:31.940Z,119.00
2019-05-02T19:34:36.927Z,119.00
2019-05-02T19:37:46.080Z,119.00
2019-05-02T19:40:51.985Z,118.49
2019-05-02T19:43:57.823Z,118.81
2019-05-02T19:47:03.418Z,118.99
2019-05-02T19:50:43.892Z,119.00
2019-05-02T19:53:59.672Z,118.86
2019-05-02T19:57:02.548Z,118.85
2019-05-02T20:00:12.124Z,117.22
2019-05-02T20:03:21.742Z,117.70
2019-05-02T20:06:24.338Z,117.62
2019-05-02T20:09:31.838Z,117.59
2019-05-02T20:12:42.430Z,118.15
2019-05-02T20:15:49.868Z,114.66
2019-05-02T20:18:57.617Z,112.17
2019-05-02T20:22:12.876Z,111.76
2019-05-02T20:25:18.233Z,109.95
2019-05-02T20:28:23.525Z,111.00
2019-05-02T20:31:28.735Z,108.19
2019-05-02T20:34:33.980Z,106.30
2019-05-02T20:37:39.167Z,106.38
2019-05-02T20:40:44.406Z,105.78
2019-05-02T20:43:51.533Z,106.22
2019-05-02T20:46:56.523Z,105.72
2019-05-02T20:50:02.648Z,106.12
2019-05-02T20:53:28.756Z,105.83
2019-05-02T20:56:26.288Z,106.45
2019-05-02T20:59:32.258Z,107.86
2019-05-02T21:02:37.665Z,105.57
2019-05-02T21:05:52.074Z,106.56
2019-05-02T21:09:04.590Z,106.42
2019-05-02T21:12:14.347Z,107.30
2019-05-02T21:15:21.613Z,108.24
2019-05-02T21:18:26.672Z,108.81
2019-05-02T21:21:33.512Z,109.79
2019-05-02T21:24:42.077Z,110.55
2019-05-02T21:27:47.267Z,111.42
2019-05-02T21:30:52.560Z,111.53
2019-05-02T21:33:58.616Z,112.21
2019-05-02T21:37:03.827Z,113.27
2019-05-02T21:40:09.136Z,113.48
2019-05-02T21:43:14.277Z,113.45
2019-05-02T21:46:19.470Z,113.50
2019-05-02T21:49:49.335Z,113.15
2019-05-02T21:53:19.270Z,112.95
2019-05-02T21:56:32.294Z,112.69
2019-05-02T21:59:37.142Z,112.24
2019-05-02T22:02:42.503Z,111.78
2019-05-02T22:05:47.844Z,111.69
2019-05-02T22:08:52.930Z,109.44
2019-05-02T22:11:58.156Z,108.98
2019-05-02T22:15:03.366Z,108.42
2019-05-02T22:18:10.227Z,108.87
2019-05-02T22:21:15.321Z,109.25
2019-05-02T22:24:21.547Z,109.29
2019-05-02T22:27:26.734Z,108.61
2019-05-02T22:30:32.339Z,109.12
2019-05-02T22:33:37.567Z,107.81
2019-05-02T22:36:43.038Z,108.24
2019-05-02T22:39:55.914Z,108.76
2019-05-02T22:43:01.926Z,110.32
2019-05-02T22:46:09.650Z,111.00
2019-05-02T22:49:15.327Z,110.73
2019-05-02T22:52:21.796Z,110.92
2019-05-02T22:55:27.189Z,111.59
2019-05-02T22:58:32.733Z,111.39
2019-05-02T23:01:38.970Z,112.00
2019-05-02T23:04:44.196Z,112.22
2019-05-02T23:07:49.370Z,111.92
2019-05-02T23:10:55.319Z,112.12
2019-05-02T23:14:02.215Z,111.64
2019-05-02T23:17:08.104Z,111.41
2019-05-02T23:20:13.894Z,112.65
2019-05-02T23:23:19.444Z,112.89
2019-05-02T23:26:43.669Z,112.76
2019-05-02T23:29:49.310Z,112.98
2019-05-02T23:32:54.482Z,113.43
2019-05-02T23:35:59.645Z,113.87
2019-05-02T23:39:08.916Z,114.23
2019-05-02T23:42:14.075Z,114.48
2019-05-02T23:45:19.345Z,115.08
2019-05-02T23:48:24.559Z,114.84
2019-05-02T23:51:31.889Z,114.53
2019-05-02T23:54:48.882Z,113.64
2019-05-02T23:57:43.608Z,114.28
